Kuper — CFN4618 — position and weather

sailwx.info

Track history (hours):
 
Tides and Currents Weather Stations Pressure Air Temp Water Temp Dewpoint Dewpoint Depression Visibility Wind Speed Wind Dir Waves Ship Positions

Kuper

Last reported at 2018-Apr-24 23:00 UTC. Time now 2018-Apr-24 23:06 UTC.
Position N 48°58' W 123°40'.

Length 50 m; draft 2 m.

Type: Passenger vessel. MMSI: 316009547.

Date/timePositionNaut miles runAvg speedWind from/ knotsBaromVisibWave heightAir tempDewpointWater temp
2018-Apr-24 23:00N 48°58' W 123°40'3 5.0
2018-Apr-24 22:28N 48°56' W 123°43'3 7.2
2018-Apr-24 22:00N 48°58' W 123°40'1 2.0
2018-Apr-24 21:30N 48°58' W 123°41'3 5.2
2018-Apr-24 20:57N 48°56' W 123°43'4 6.8
2018-Apr-24 20:26N 48°59' W 123°41'1 2.0
2018-Apr-24 19:59N 48°58' W 123°40'3 6.4
2018-Apr-24 19:30N 48°56' W 123°43'0 0.7
2018-Apr-24 18:58N 48°56' W 123°43'2 4.6
2018-Apr-24 18:30N 48°58' W 123°42'1 2.4
2018-Apr-24 18:00N 48°58' W 123°40'2 3.6
2018-Apr-24 17:31N 48°57' W 123°42'1 1.6
2018-Apr-24 17:00N 48°56' W 123°42'2 4.9
2018-Apr-24 16:30N 48°58' W 123°40'1 2.3
2018-Apr-24 16:00N 48°57' W 123°42'2 3.6
2018-Apr-24 15:30N 48°56' W 123°43'3 6.4
2018-Apr-24 15:00N 48°59' W 123°41'1 2.7
2018-Apr-24 14:30N 48°57' W 123°40'3 5.2
2018-Apr-24 14:00N 48°56' W 123°43'3 6.6
2018-Apr-24 13:30N 48°58' W 123°40'1 0.4
2018-Apr-24 11:25N 48°59' W 123°41'0 0.0
2018-Apr-24 10:01N 48°59' W 123°41'0 0.0
2018-Apr-24 09:55N 48°59' W 123°41'0 0.0
2018-Apr-24 09:04N 48°59' W 123°41'0 0.0
2018-Apr-24 08:55N 48°59' W 123°41'0 0.0
2018-Apr-24 07:55N 48°59' W 123°41'0 0.0
2018-Apr-24 07:19N 48°59' W 123°41'0 0.0
2018-Apr-24 06:31N 48°59' W 123°41'0 0.0
2018-Apr-24 06:28N 48°59' W 123°41'0 0.0
2018-Apr-24 06:00N 48°59' W 123°41'2 3.7
2018-Apr-24 05:30N 48°57' W 123°41'2 3.4
2018-Apr-24 05:00N 48°56' W 123°43'3 5.9
2018-Apr-24 04:30N 48°59' W 123°41'2 3.7
2018-Apr-24 04:01N 48°57' W 123°41'0 1.0
2018-Apr-24 03:30N 48°56' W 123°42'2 3.4
2018-Apr-24 03:00N 48°58' W 123°40'1 2.9
2018-Apr-24 02:30N 48°57' W 123°42'1 1.3
2018-Apr-24 02:00N 48°56' W 123°42'2 3.4
2018-Apr-24 01:26N 48°58' W 123°41'1 2.4
2018-Apr-24 00:59N 48°57' W 123°42'2 3.3
2018-Apr-24 00:30N 48°56' W 123°43'3 6.5
2018-Apr-24 00:00N 48°59' W 123°41'2 3.2
2018-Apr-23 23:30N 48°57' W 123°41'2 2.4
2018-Apr-23 22:36N 48°56' W 123°43'1 7.8
2018-Apr-23 22:30N 48°56' W 123°42'2 4.0
2018-Apr-23 21:57N 48°58' W 123°41'1 2.5
2018-Apr-23 21:29N 48°57' W 123°42'1 2.8
2018-Apr-23 21:00N 48°56' W 123°42'3 5.8
2018-Apr-23 20:30N 48°59' W 123°41'2 3.5
2018-Apr-23 20:00N 48°57' W 123°41'2 2.3
2018-Apr-23 19:11N 48°56' W 123°43'0 0.0
2018-Apr-23 18:55N 48°56' W 123°43'3 6.3
2018-Apr-23 18:30N 48°58' W 123°41'1 2.4
2018-Apr-23 18:01N 48°58' W 123°40'2 4.6
2018-Apr-23 17:30N 48°56' W 123°42'0 0.4
2018-Apr-23 17:00N 48°56' W 123°42'2 4.1
2018-Apr-23 16:30N 48°58' W 123°40'1 2.0
2018-Apr-23 15:59N 48°58' W 123°42'2 3.5
2018-Apr-23 15:29N 48°56' W 123°43'3 6.4
2018-Apr-23 15:00N 48°59' W 123°41'1 2.5
2018-Apr-23 14:30N 48°58' W 123°40'3 5.0
2018-Apr-23 13:58N 48°56' W 123°43'3 7.0
2018-Apr-23 13:30N 48°58' W 123°40'1 1.9
2018-Apr-23 13:00N 48°59' W 123°41'0 0.0
2018-Apr-23 12:17N 48°59' W 123°41'0 0.0
2018-Apr-23 11:59N 48°59' W 123°41'0 0.0
2018-Apr-23 11:17N 48°59' W 123°41'0 0.0
2018-Apr-23 10:47N 48°59' W 123°41'0 0.0
2018-Apr-23 10:29N 48°59' W 123°41'0 0.0
2018-Apr-23 09:53N 48°59' W 123°41'0 0.0
2018-Apr-23 09:29N 48°59' W 123°41'0 0.0
2018-Apr-23 08:59N 48°59' W 123°41'0 0.0
2018-Apr-23 08:29N 48°59' W 123°41'0 0.0
2018-Apr-23 07:59N 48°59' W 123°41'0 0.0
2018-Apr-23 07:29N 48°59' W 123°41'0 0.0
2018-Apr-23 05:50N 48°59' W 123°41'1 2.6
2018-Apr-23 05:29N 48°58' W 123°40'3 7.1
2018-Apr-23 05:00N 48°56' W 123°43'2 4.2
2018-Apr-23 04:30N 48°58' W 123°42'2 2.7
2018-Apr-23 03:56N 48°58' W 123°40'3 6.6
2018-Apr-23 03:30N 48°56' W 123°42'1 2.5
2018-Apr-23 03:00N 48°57' W 123°41'1 2.7
2018-Apr-23 02:30N 48°58' W 123°41'2 3.0
2018-Apr-23 02:00N 48°57' W 123°42'1 1.9
2018-Apr-23 01:30N 48°56' W 123°42'3 5.4
2018-Apr-23 01:00N 48°58' W 123°40'1 2.6
2018-Apr-23 00:30N 48°58' W 123°42'2 4.0
2018-Apr-22 23:55N 48°56' W 123°43'3 8.4
2018-Apr-22 23:30N 48°59' W 123°41'1 1.8
2018-Apr-22 23:00N 48°58' W 123°40'3 5.7
2018-Apr-22 22:26N 48°56' W 123°43'3 7.3
2018-Apr-22 21:58N 48°58' W 123°40'1 1.9
2018-Apr-22 21:29N 48°59' W 123°41'3 4.8
2018-Apr-22 20:46N 48°56' W 123°43'2 8.4
2018-Apr-22 20:29N 48°58' W 123°42'1 1.8
2018-Apr-22 20:00N 48°58' W 123°40'2 3.1
2018-Apr-22 19:30N 48°57' W 123°41'1 1.6
2018-Apr-22 18:42N 48°56' W 123°43'1 7.8
2018-Apr-22 18:30N 48°57' W 123°42'1 2.6
2018-Apr-22 17:59N 48°58' W 123°40'1 1.9
2018-Apr-22 17:30N 48°57' W 123°41'2 3.9
2018-Apr-22 17:00N 48°56' W 123°43'3 6.8
2018-Apr-22 16:30N 48°58' W 123°40'1 2.2
2018-Apr-22 16:00N 48°58' W 123°41'3 5.1
2018-Apr-22 15:30N 48°56' W 123°43'3 6.3
2018-Apr-22 14:58N 48°59' W 123°41'1 2.5
2018-Apr-22 14:30N 48°58' W 123°40'3 5.1
2018-Apr-22 13:58N 48°56' W 123°43'3 7.2
2018-Apr-22 13:30N 48°58' W 123°40'1 1.8
2018-Apr-22 13:00N 48°59' W 123°41'0 0.0
2018-Apr-22 12:29N 48°59' W 123°41'0 0.0
2018-Apr-22 12:00N 48°59' W 123°41'0 0.0
2018-Apr-22 11:28N 48°59' W 123°41'0 0.0
2018-Apr-22 10:58N 48°59' W 123°41'0 0.0
2018-Apr-22 10:30N 48°59' W 123°41'0 0.0
2018-Apr-22 10:00N 48°59' W 123°41'0 0.0
2018-Apr-22 09:29N 48°59' W 123°41'0 0.0
2018-Apr-22 09:00N 48°59' W 123°41'0 0.0
2018-Apr-22 08:30N 48°59' W 123°41'0 0.0
2018-Apr-22 08:00N 48°59' W 123°41'0 0.0
2018-Apr-22 07:30N 48°59' W 123°41'0 0.0
2018-Apr-22 06:59N 48°59' W 123°41'0 0.0
2018-Apr-22 06:27N 48°59' W 123°41'0 0.0
2018-Apr-22 05:59N 48°59' W 123°41'1 1.9
2018-Apr-22 05:30N 48°58' W 123°40'3 4.5
2018-Apr-22 04:45N 48°56' W 123°43'2 7.7
2018-Apr-22 04:29N 48°57' W 123°42'2 3.0
2018-Apr-22 03:59N 48°58' W 123°40'3 5.5
2018-Apr-22 03:30N 48°56' W 123°42'1 1.9
2018-Apr-22 02:59N 48°57' W 123°41'1 2.6
2018-Apr-22 02:30N 48°58' W 123°41'1 2.7
2018-Apr-22 01:58N 48°57' W 123°42'1 2.6
2018-Apr-22 01:30N 48°56' W 123°43'3 6.3
2018-Apr-22 01:00N 48°58' W 123°40'1 1.9
2018-Apr-22 00:30N 48°58' W 123°41'3 4.8
2018-Apr-21 23:55N 48°56' W 123°43'4 8.5
2018-Apr-21 23:30N 48°59' W 123°41'1 1.8
2018-Apr-21 23:00N 48°58' W 123°40'3 5.4
2018-Apr-21 22:25N 48°56' W 123°43'3 8.0
2018-Apr-21 22:00N 48°58' W 123°40'1 1.6
2018-Apr-21 21:27N 48°59' W 123°41'3 7.6
2018-Apr-21 21:00N 48°56' W 123°43'2 4.2
2018-Apr-21 20:30N 48°58' W 123°42'1 2.7
2018-Apr-21 20:00N 48°58' W 123°40'2 4.2
2018-Apr-21 19:30N 48°57' W 123°42'1 1.5
2018-Apr-21 18:41N 48°56' W 123°43'2 8.1
2018-Apr-21 18:30N 48°57' W 123°42'1 2.8
2018-Apr-21 18:00N 48°58' W 123°40'1 2.0
2018-Apr-21 17:30N 48°57' W 123°41'2 3.6
2018-Apr-21 16:59N 48°56' W 123°43'3 6.8
2018-Apr-21 16:30N 48°58' W 123°40'1 2.4
2018-Apr-21 16:00N 48°58' W 123°41'2 4.9
2018-Apr-21 15:30N 48°56' W 123°43'3 6.8
2018-Apr-21 15:00N 48°59' W 123°41'1 2.5
2018-Apr-21 14:30N 48°58' W 123°40'3 5.1
2018-Apr-21 14:00N 48°56' W 123°43'3 6.6
2018-Apr-21 13:30N 48°58' W 123°40'1 0.4
2018-Apr-21 11:20N 48°59' W 123°41'0 0.0
2018-Apr-21 06:26N 48°59' W 123°41'0 0.4
2018-Apr-21 05:59N 48°59' W 123°41'1 3.1
2018-Apr-21 05:30N 48°57' W 123°41'2 4.3
2018-Apr-21 05:00N 48°56' W 123°43'4 7.0
2018-Apr-21 04:30N 48°59' W 123°41'2 3.3
2018-Apr-21 04:00N 48°57' W 123°41'2 3.1
2018-Apr-21 03:31N 48°56' W 123°42'2 4.5
2018-Apr-21 03:01N 48°58' W 123°40'2 3.1
2018-Apr-21 02:30N 48°57' W 123°42'0 0.8
2018-Apr-21 02:00N 48°57' W 123°42'2 3.4
2018-Apr-21 01:30N 48°58' W 123°41'2 3.9
2018-Apr-21 01:01N 48°57' W 123°42'1 1.1
2018-Apr-21 00:30N 48°57' W 123°42'1 2.6
2018-Apr-20 23:58N 48°58' W 123°40'2 3.9
2018-Apr-20 23:30N 48°56' W 123°42'0 0.2
2018-Apr-20 23:00N 48°56' W 123°42'2 3.6
2018-Apr-20 22:29N 48°58' W 123°41'1 1.5
2018-Apr-20 22:00N 48°58' W 123°42'2 4.5
2018-Apr-20 21:30N 48°56' W 123°43'3 6.7
2018-Apr-20 21:00N 48°58' W 123°40'1 1.7
2018-Apr-20 20:30N 48°58' W 123°41'3 5.0
2018-Apr-20 19:52N 48°56' W 123°43'2 6.7
2018-Apr-20 19:30N 48°57' W 123°40'1 1.7
2018-Apr-20 19:00N 48°57' W 123°41'1 2.6
2018-Apr-20 18:30N 48°56' W 123°43'3 5.9
2018-Apr-20 17:57N 48°59' W 123°41'1 2.1
2018-Apr-20 17:30N 48°58' W 123°40'3 5.6
2018-Apr-20 16:57N 48°56' W 123°43'3 6.3
2018-Apr-20 16:30N 48°58' W 123°41'1 2.7
2018-Apr-20 16:00N 48°57' W 123°42'1 1.4
2018-Apr-20 15:29N 48°56' W 123°42'3 5.8
2018-Apr-20 15:00N 48°59' W 123°41'1 2.7
2018-Apr-20 14:31N 48°57' W 123°40'2 4.9
2018-Apr-20 14:01N 48°56' W 123°43'3 6.4
2018-Apr-20 13:30N 48°58' W 123°40'1 1.8
2018-Apr-20 13:00N 48°59' W 123°41'0 0.0
2018-Apr-20 12:16N 48°59' W 123°41'0 0.0
2018-Apr-20 11:46N 48°59' W 123°41'0 0.0
2018-Apr-20 11:28N 48°59' W 123°41'0 0.0
2018-Apr-20 09:52N 48°59' W 123°41'0 0.0
2018-Apr-20 09:16N 48°59' W 123°41'0 0.0
2018-Apr-20 08:58N 48°59' W 123°41'0 0.0
2018-Apr-20 05:58N 48°59' W 123°41'1 2.0
2018-Apr-20 05:30N 48°58' W 123°40'3 6.7
2018-Apr-20 04:59N 48°56' W 123°43'2 4.7
2018-Apr-20 04:29N 48°58' W 123°42'1 2.8
2018-Apr-20 04:00N 48°58' W 123°40'3 5.9
2018-Apr-20 03:30N 48°56' W 123°42'2 3.2
2018-Apr-20 03:00N 48°57' W 123°41'2 3.2
2018-Apr-20 02:29N 48°59' W 123°41'2 4.9
2018-Apr-20 02:00N 48°57' W 123°42'0 0.7
2018-Apr-20 01:30N 48°56' W 123°42'2 4.6
2018-Apr-20 01:00N 48°58' W 123°40'1 2.4
2018-Apr-20 00:30N 48°58' W 123°42'2 4.4
2018-Apr-20 00:00N 48°56' W 123°43'3 6.9
2018-Apr-19 23:30N 48°59' W 123°41'1 2.5
2018-Apr-19 23:00N 48°58' W 123°40'3 4.9
2018-Apr-19 22:27N 48°56' W 123°43'3 7.3
2018-Apr-19 21:59N 48°58' W 123°40'1 1.7
2018-Apr-19 21:27N 48°59' W 123°41'3 7.0
2018-Apr-19 21:01N 48°56' W 123°43'2 3.0
2018-Apr-19 20:30N 48°57' W 123°42'1 2.2
2018-Apr-19 20:00N 48°58' W 123°40'1 2.6
2018-Apr-19 19:30N 48°57' W 123°41'1 2.2
2018-Apr-19 18:49N 48°56' W 123°43'2 6.9
2018-Apr-19 18:30N 48°58' W 123°42'1 2.4
2018-Apr-19 18:00N 48°58' W 123°40'2 3.7
2018-Apr-19 17:30N 48°57' W 123°42'1 1.2
2018-Apr-19 17:00N 48°56' W 123°42'2 4.5
2018-Apr-19 16:30N 48°58' W 123°40'1 2.3
2018-Apr-19 16:00N 48°57' W 123°42'1 2.8
2018-Apr-19 15:30N 48°56' W 123°43'3 5.9
2018-Apr-19 15:00N 48°59' W 123°41'1 2.5
2018-Apr-19 14:30N 48°58' W 123°40'3 5.2
2018-Apr-19 14:00N 48°56' W 123°43'3 6.4
2018-Apr-19 13:29N 48°58' W 123°40'1 0.1
2018-Apr-19 05:45N 48°59' W 123°41'1 3.7
2018-Apr-19 05:30N 48°58' W 123°40'3 4.8
2018-Apr-19 04:49N 48°56' W 123°43'2 7.4
2018-Apr-19 04:30N 48°58' W 123°42'1 2.5
2018-Apr-19 04:00N 48°58' W 123°40'2 4.9
2018-Apr-19 03:30N 48°56' W 123°42'1 1.9
2018-Apr-19 03:00N 48°57' W 123°41'1 2.8
2018-Apr-19 02:30N 48°58' W 123°41'1 2.9
2018-Apr-19 02:01N 48°57' W 123°42'1 1.7
2018-Apr-19 01:30N 48°56' W 123°42'3 5.4
2018-Apr-19 01:00N 48°58' W 123°40'1 2.4
2018-Apr-19 00:30N 48°58' W 123°41'3 4.8
2018-Apr-18 23:59N 48°56' W 123°43'4 6.8
2018-Apr-18 23:28N 48°59' W 123°41'1 2.7
2018-Apr-18 23:00N 48°58' W 123°40'3 4.8
2018-Apr-18 22:27N 48°56' W 123°43'3 7.5
2018-Apr-18 22:00N 48°58' W 123°40'1 1.4
2018-Apr-18 21:19N 48°59' W 123°41'2 7.1
2018-Apr-18 21:01N 48°57' W 123°42'0 0.3
2018-Apr-18 20:29N 48°57' W 123°42'2 3.9
2018-Apr-18 20:00N 48°58' W 123°41'1 2.8
2018-Apr-18 19:30N 48°57' W 123°41'2 2.4
2018-Apr-18 18:45N 48°56' W 123°43'2 8.1
2018-Apr-18 18:30N 48°57' W 123°42'1 2.4
2018-Apr-18 18:00N 48°58' W 123°40'1 3.0
2018-Apr-18 17:30N 48°57' W 123°41'1 2.0
2018-Apr-18 17:00N 48°56' W 123°42'2 4.2
2018-Apr-18 16:27N 48°58' W 123°41'1 1.9
2018-Apr-18 16:00N 48°57' W 123°42'2 3.8
2018-Apr-18 15:30N 48°56' W 123°43'3 6.8
2018-Apr-18 15:00N 48°59' W 123°41'1 2.8
2018-Apr-18 14:30N 48°57' W 123°40'2 4.9
2018-Apr-18 14:00N 48°56' W 123°43'3 6.6
2018-Apr-18 13:31N 48°58' W 123°40'1 0.3
2018-Apr-18 09:55N 48°59' W 123°41'0 0.0
2018-Apr-18 08:07N 48°59' W 123°41'0 0.0
2018-Apr-18 06:04N 48°59' W 123°41'0 4.1
2018-Apr-18 05:59N 48°58' W 123°41'1 3.1
2018-Apr-18 05:31N 48°57' W 123°41'2 3.1
2018-Apr-18 05:00N 48°56' W 123°43'3 6.4
2018-Apr-18 04:31N 48°59' W 123°41'2 3.2
2018-Apr-18 04:00N 48°57' W 123°40'2 3.9
2018-Apr-18 03:30N 48°56' W 123°43'3 6.1
2018-Apr-18 03:01N 48°58' W 123°40'1 1.6
2018-Apr-18 02:27N 48°59' W 123°41'3 6.4
2018-Apr-18 02:00N 48°56' W 123°42'2 3.3
2018-Apr-18 01:28N 48°57' W 123°40'1 3.1
2018-Apr-18 01:00N 48°59' W 123°41'3 6.6
2018-Apr-18 00:30N 48°56' W 123°43'2 3.0
2018-Apr-18 00:00N 48°57' W 123°42'1 2.7
2018-Apr-17 23:30N 48°58' W 123°40'2 4.2
2018-Apr-17 23:01N 48°56' W 123°42'1 1.5
2018-Apr-17 22:27N 48°56' W 123°43'3 7.3
2018-Apr-17 22:00N 48°58' W 123°40'1 1.5
2018-Apr-17 21:23N 48°59' W 123°41'3 8.7
2018-Apr-17 21:00N 48°56' W 123°43'2 3.8
2018-Apr-17 20:28N 48°58' W 123°42'1 2.0
2018-Apr-17 20:00N 48°58' W 123°40'2 3.9
2018-Apr-17 19:31N 48°56' W 123°42'1 1.1
2018-Apr-17 18:45N 48°56' W 123°43'2 8.5
2018-Apr-17 18:30N 48°57' W 123°42'1 2.3
2018-Apr-17 18:00N 48°58' W 123°40'3 5.2
2018-Apr-17 17:30N 48°56' W 123°42'1 3.0
2018-Apr-17 17:00N 48°57' W 123°41'1 1.9
2018-Apr-17 16:30N 48°58' W 123°41'1 2.1
2018-Apr-17 16:01N 48°57' W 123°42'2 3.0
2018-Apr-17 15:30N 48°56' W 123°43'3 6.3
2018-Apr-17 15:00N 48°59' W 123°41'1 3.0
2018-Apr-17 14:30N 48°57' W 123°40'2 4.8
2018-Apr-17 14:00N 48°56' W 123°43'3 6.8
2018-Apr-17 13:31N 48°58' W 123°40'1 1.8
2018-Apr-17 13:00N 48°59' W 123°41'0 0.0
2018-Apr-17 12:27N 48°59' W 123°41'0 0.0
2018-Apr-17 11:51N 48°59' W 123°41'0 0.0
2018-Apr-17 11:27N 48°59' W 123°41'0 0.0
2018-Apr-17 09:15N 48°59' W 123°41'0 0.0
2018-Apr-17 08:57N 48°59' W 123°41'0 0.0
2018-Apr-17 08:21N 48°59' W 123°41'0 0.0
2018-Apr-17 07:51N 48°59' W 123°41'0 0.0
2018-Apr-17 07:27N 48°59' W 123°41'0 0.0
2018-Apr-17 06:57N 48°59' W 123°41'0 0.0
2018-Apr-17 06:21N 48°59' W 123°41'0 0.0
2018-Apr-17 05:49N 48°59' W 123°41'1 2.9
2018-Apr-17 05:30N 48°58' W 123°40'3 4.6
2018-Apr-17 04:47N 48°56' W 123°43'2 8.6
2018-Apr-17 04:29N 48°58' W 123°41'1 2.5
2018-Apr-17 04:00N 48°58' W 123°40'3 6.3
2018-Apr-17 03:29N 48°56' W 123°43'2 3.6
2018-Apr-17 03:00N 48°57' W 123°41'1 2.7
2018-Apr-17 02:30N 48°58' W 123°41'2 4.3
2018-Apr-17 02:00N 48°56' W 123°42'2 3.0
2018-Apr-17 01:29N 48°57' W 123°40'1 2.6
2018-Apr-17 00:56N 48°59' W 123°41'4 5.5
2018-Apr-17 00:17N 48°56' W 123°43'2 8.5
2018-Apr-17 00:00N 48°58' W 123°42'1 2.4
2018-Apr-16 23:28N 48°58' W 123°40'3 4.8
2018-Apr-16 22:46N 48°56' W 123°43'2 8.3
2018-Apr-16 22:30N 48°57' W 123°41'1 1.5
2018-Apr-16 21:30N 48°59' W 123°41'2 4.0
2018-Apr-16 21:00N 48°57' W 123°42'0 0.9
2018-Apr-16 20:29N 48°57' W 123°42'2 4.4
2018-Apr-16 19:59N 48°59' W 123°41'1 3.1
2018-Apr-16 19:30N 48°57' W 123°41'2 2.7
2018-Apr-16 18:45N 48°56' W 123°43'2 7.3
2018-Apr-16 18:30N 48°57' W 123°42'1 2.4
2018-Apr-16 17:58N 48°58' W 123°40'1 2.7
2018-Apr-16 17:30N 48°57' W 123°41'1 2.3
2018-Apr-16 17:00N 48°56' W 123°42'3 5.6
2018-Apr-16 16:30N 48°58' W 123°40'1 2.4
2018-Apr-16 16:00N 48°58' W 123°41'2 4.5
2018-Apr-16 15:30N 48°56' W 123°43'3 6.7
2018-Apr-16 14:59N 48°59' W 123°41'1 2.8
2018-Apr-16 14:30N 48°58' W 123°40'3 5.0
2018-Apr-16 14:00N 48°56' W 123°43'3 6.2
2018-Apr-16 13:29N 48°58' W 123°40'1 0.4
2018-Apr-16 11:08N 48°59' W 123°41'0 0.0
2018-Apr-16 10:53N 48°59' W 123°41'0 0.0
2018-Apr-16 10:26N 48°59' W 123°41'0 0.0
2018-Apr-16 08:32N 48°59' W 123°41'0 0.0
2018-Apr-16 08:08N 48°59' W 123°41'0 0.0
2018-Apr-16 07:44N 48°59' W 123°41'0 0.0
2018-Apr-16 06:35N 48°59' W 123°41'0 0.0
2018-Apr-16 06:08N 48°59' W 123°41'0 0.0
2018-Apr-16 05:52N 48°59' W 123°41'1 2.4
2018-Apr-16 05:29N 48°58' W 123°40'3 7.1
2018-Apr-16 05:00N 48°56' W 123°43'2 4.1
2018-Apr-16 04:29N 48°58' W 123°42'1 3.0
2018-Apr-16 04:00N 48°58' W 123°40'3 6.3
2018-Apr-16 03:30N 48°56' W 123°43'2 3.7
2018-Apr-16 03:00N 48°57' W 123°41'2 3.1
2018-Apr-16 02:31N 48°59' W 123°41'2 4.5
2018-Apr-16 02:00N 48°57' W 123°42'0 0.6
2018-Apr-16 01:29N 48°56' W 123°42'2 4.5
2018-Apr-16 01:00N 48°58' W 123°40'1 2.8
2018-Apr-16 00:30N 48°58' W 123°42'2 4.1
2018-Apr-16 00:00N 48°56' W 123°43'3 6.4
2018-Apr-15 23:28N 48°59' W 123°41'1 2.4
2018-Apr-15 23:00N 48°58' W 123°40'3 4.8
2018-Apr-15 22:25N 48°56' W 123°43'3 8.1
2018-Apr-15 22:00N 48°58' W 123°40'1 1.4
2018-Apr-15 21:20N 48°59' W 123°41'2 7.2
2018-Apr-15 21:01N 48°57' W 123°42'0 0.3
2018-Apr-15 20:30N 48°57' W 123°42'2 3.7
2018-Apr-15 20:00N 48°58' W 123°41'2 3.2
2018-Apr-15 19:31N 48°57' W 123°41'1 1.6
2018-Apr-15 18:40N 48°56' W 123°43'1 8.3
2018-Apr-15 18:30N 48°57' W 123°42'2 2.9
2018-Apr-15 17:59N 48°58' W 123°40'1 1.5
2018-Apr-15 17:30N 48°57' W 123°40'2 4.1
2018-Apr-15 16:58N 48°56' W 123°43'3 7.2
2018-Apr-15 16:30N 48°58' W 123°40'1 2.5
2018-Apr-15 16:00N 48°58' W 123°41'2 4.9
2018-Apr-15 15:31N 48°56' W 123°43'4 7.0
2018-Apr-15 15:00N 48°59' W 123°41'2 3.0
2018-Apr-15 14:30N 48°57' W 123°40'2 4.3
2018-Apr-15 13:57N 48°56' W 123°43'3 7.5
2018-Apr-15 13:30N 48°58' W 123°40'1 1.8
2018-Apr-15 12:59N 48°59' W 123°41'0 0.0
2018-Apr-15 12:30N 48°59' W 123°41'0 0.0
2018-Apr-15 12:00N 48°59' W 123°41'0 0.0
2018-Apr-15 11:28N 48°59' W 123°41'0 0.0
2018-Apr-15 10:55N 48°59' W 123°41'0 0.0
2018-Apr-15 10:30N 48°59' W 123°41'0 0.0
2018-Apr-15 09:58N 48°59' W 123°41'0 0.0
2018-Apr-15 09:30N 48°59' W 123°41'0 0.0
2018-Apr-15 08:59N 48°59' W 123°41'0 0.0
2018-Apr-15 08:30N 48°59' W 123°41'0 0.0
2018-Apr-15 08:00N 48°59' W 123°41'0 0.0
2018-Apr-15 06:24N 48°59' W 123°41'0 0.0
2018-Apr-15 05:59N 48°59' W 123°41'1 1.8
2018-Apr-15 05:30N 48°58' W 123°40'3 6.5
2018-Apr-15 05:00N 48°56' W 123°43'2 4.2
2018-Apr-15 04:29N 48°58' W 123°42'1 2.9
2018-Apr-15 04:00N 48°58' W 123°40'3 6.0
2018-Apr-15 03:30N 48°56' W 123°43'1 2.6
2018-Apr-15 03:00N 48°57' W 123°41'1 2.6
2018-Apr-15 02:30N 48°58' W 123°41'1 2.5
2018-Apr-15 02:00N 48°57' W 123°42'1 2.7
2018-Apr-15 01:30N 48°56' W 123°43'3 5.8
2018-Apr-15 00:59N 48°58' W 123°40'1 1.8
2018-Apr-15 00:30N 48°58' W 123°41'3 5.8
2018-Apr-14 23:59N 48°56' W 123°43'4 6.1
2018-Apr-14 23:24N 48°59' W 123°41'  
Track history (hours):
 
Tides and Currents Weather Stations Pressure Air Temp Water Temp Dewpoint Dewpoint Depression Visibility Wind Speed Wind Dir Waves Ship Positions

Kuper

Last reported at 2018-Apr-24 23:00 UTC. Time now 2018-Apr-24 23:06 UTC.
Position N 48°58' W 123°40'.

Length 50 m; draft 2 m.

Type: Passenger vessel. MMSI: 316009547.

Date/timePositionNaut miles runAvg speedWind from/ knotsBaromVisibWave heightAir tempDewpointWater temp
2018-Apr-24 23:00N 48°58' W 123°40'3 5.0
2018-Apr-24 22:28N 48°56' W 123°43'3 7.2
2018-Apr-24 22:00N 48°58' W 123°40'1 2.0
2018-Apr-24 21:30N 48°58' W 123°41'3 5.2
2018-Apr-24 20:57N 48°56' W 123°43'4 6.8
2018-Apr-24 20:26N 48°59' W 123°41'1 2.0
2018-Apr-24 19:59N 48°58' W 123°40'3 6.4
2018-Apr-24 19:30N 48°56' W 123°43'0 0.7
2018-Apr-24 18:58N 48°56' W 123°43'2 4.6
2018-Apr-24 18:30N 48°58' W 123°42'1 2.4
2018-Apr-24 18:00N 48°58' W 123°40'2 3.6
2018-Apr-24 17:31N 48°57' W 123°42'1 1.6
2018-Apr-24 17:00N 48°56' W 123°42'2 4.9
2018-Apr-24 16:30N 48°58' W 123°40'1 2.3
2018-Apr-24 16:00N 48°57' W 123°42'2 3.6
2018-Apr-24 15:30N 48°56' W 123°43'3 6.4
2018-Apr-24 15:00N 48°59' W 123°41'1 2.7
2018-Apr-24 14:30N 48°57' W 123°40'3 5.2
2018-Apr-24 14:00N 48°56' W 123°43'3 6.6
2018-Apr-24 13:30N 48°58' W 123°40'1 0.4
2018-Apr-24 11:25N 48°59' W 123°41'0 0.0
2018-Apr-24 10:01N 48°59' W 123°41'0 0.0
2018-Apr-24 09:55N 48°59' W 123°41'0 0.0
2018-Apr-24 09:04N 48°59' W 123°41'0 0.0
2018-Apr-24 08:55N 48°59' W 123°41'0 0.0
2018-Apr-24 07:55N 48°59' W 123°41'0 0.0
2018-Apr-24 07:19N 48°59' W 123°41'0 0.0
2018-Apr-24 06:31N 48°59' W 123°41'0 0.0
2018-Apr-24 06:28N 48°59' W 123°41'0 0.0
2018-Apr-24 06:00N 48°59' W 123°41'2 3.7
2018-Apr-24 05:30N 48°57' W 123°41'2 3.4
2018-Apr-24 05:00N 48°56' W 123°43'3 5.9
2018-Apr-24 04:30N 48°59' W 123°41'2 3.7
2018-Apr-24 04:01N 48°57' W 123°41'0 1.0
2018-Apr-24 03:30N 48°56' W 123°42'2 3.4
2018-Apr-24 03:00N 48°58' W 123°40'1 2.9
2018-Apr-24 02:30N 48°57' W 123°42'1 1.3
2018-Apr-24 02:00N 48°56' W 123°42'2 3.4
2018-Apr-24 01:26N 48°58' W 123°41'1 2.4
2018-Apr-24 00:59N 48°57' W 123°42'2 3.3
2018-Apr-24 00:30N 48°56' W 123°43'3 6.5
2018-Apr-24 00:00N 48°59' W 123°41'2 3.2
2018-Apr-23 23:30N 48°57' W 123°41'2 2.4
2018-Apr-23 22:36N 48°56' W 123°43'1 7.8
2018-Apr-23 22:30N 48°56' W 123°42'2 4.0
2018-Apr-23 21:57N 48°58' W 123°41'1 2.5
2018-Apr-23 21:29N 48°57' W 123°42'1 2.8
2018-Apr-23 21:00N 48°56' W 123°42'3 5.8
2018-Apr-23 20:30N 48°59' W 123°41'2 3.5
2018-Apr-23 20:00N 48°57' W 123°41'2 2.3
2018-Apr-23 19:11N 48°56' W 123°43'0 0.0
2018-Apr-23 18:55N 48°56' W 123°43'3 6.3
2018-Apr-23 18:30N 48°58' W 123°41'1 2.4
2018-Apr-23 18:01N 48°58' W 123°40'2 4.6
2018-Apr-23 17:30N 48°56' W 123°42'0 0.4
2018-Apr-23 17:00N 48°56' W 123°42'2 4.1
2018-Apr-23 16:30N 48°58' W 123°40'1 2.0
2018-Apr-23 15:59N 48°58' W 123°42'2 3.5
2018-Apr-23 15:29N 48°56' W 123°43'3 6.4
2018-Apr-23 15:00N 48°59' W 123°41'1 2.5
2018-Apr-23 14:30N 48°58' W 123°40'3 5.0
2018-Apr-23 13:58N 48°56' W 123°43'3 7.0
2018-Apr-23 13:30N 48°58' W 123°40'1 1.9
2018-Apr-23 13:00N 48°59' W 123°41'0 0.0
2018-Apr-23 12:17N 48°59' W 123°41'0 0.0
2018-Apr-23 11:59N 48°59' W 123°41'0 0.0
2018-Apr-23 11:17N 48°59' W 123°41'0 0.0
2018-Apr-23 10:47N 48°59' W 123°41'0 0.0
2018-Apr-23 10:29N 48°59' W 123°41'0 0.0
2018-Apr-23 09:53N 48°59' W 123°41'0 0.0
2018-Apr-23 09:29N 48°59' W 123°41'0 0.0
2018-Apr-23 08:59N 48°59' W 123°41'0 0.0
2018-Apr-23 08:29N 48°59' W 123°41'0 0.0
2018-Apr-23 07:59N 48°59' W 123°41'0 0.0
2018-Apr-23 07:29N 48°59' W 123°41'0 0.0
2018-Apr-23 05:50N 48°59' W 123°41'1 2.6
2018-Apr-23 05:29N 48°58' W 123°40'3 7.1
2018-Apr-23 05:00N 48°56' W 123°43'2 4.2
2018-Apr-23 04:30N 48°58' W 123°42'2 2.7
2018-Apr-23 03:56N 48°58' W 123°40'3 6.6
2018-Apr-23 03:30N 48°56' W 123°42'1 2.5
2018-Apr-23 03:00N 48°57' W 123°41'1 2.7
2018-Apr-23 02:30N 48°58' W 123°41'2 3.0
2018-Apr-23 02:00N 48°57' W 123°42'1 1.9
2018-Apr-23 01:30N 48°56' W 123°42'3 5.4
2018-Apr-23 01:00N 48°58' W 123°40'1 2.6
2018-Apr-23 00:30N 48°58' W 123°42'2 4.0
2018-Apr-22 23:55N 48°56' W 123°43'3 8.4
2018-Apr-22 23:30N 48°59' W 123°41'1 1.8
2018-Apr-22 23:00N 48°58' W 123°40'3 5.7
2018-Apr-22 22:26N 48°56' W 123°43'3 7.3
2018-Apr-22 21:58N 48°58' W 123°40'1 1.9
2018-Apr-22 21:29N 48°59' W 123°41'3 4.8
2018-Apr-22 20:46N 48°56' W 123°43'2 8.4
2018-Apr-22 20:29N 48°58' W 123°42'1 1.8
2018-Apr-22 20:00N 48°58' W 123°40'2 3.1
2018-Apr-22 19:30N 48°57' W 123°41'1 1.6
2018-Apr-22 18:42N 48°56' W 123°43'1 7.8
2018-Apr-22 18:30N 48°57' W 123°42'1 2.6
2018-Apr-22 17:59N 48°58' W 123°40'1 1.9
2018-Apr-22 17:30N 48°57' W 123°41'2 3.9
2018-Apr-22 17:00N 48°56' W 123°43'3 6.8
2018-Apr-22 16:30N 48°58' W 123°40'1 2.2
2018-Apr-22 16:00N 48°58' W 123°41'3 5.1
2018-Apr-22 15:30N 48°56' W 123°43'3 6.3
2018-Apr-22 14:58N 48°59' W 123°41'1 2.5
2018-Apr-22 14:30N 48°58' W 123°40'3 5.1
2018-Apr-22 13:58N 48°56' W 123°43'3 7.2
2018-Apr-22 13:30N 48°58' W 123°40'1 1.8
2018-Apr-22 13:00N 48°59' W 123°41'0 0.0
2018-Apr-22 12:29N 48°59' W 123°41'0 0.0
2018-Apr-22 12:00N 48°59' W 123°41'0 0.0
2018-Apr-22 11:28N 48°59' W 123°41'0 0.0
2018-Apr-22 10:58N 48°59' W 123°41'0 0.0
2018-Apr-22 10:30N 48°59' W 123°41'0 0.0
2018-Apr-22 10:00N 48°59' W 123°41'0 0.0
2018-Apr-22 09:29N 48°59' W 123°41'0 0.0
2018-Apr-22 09:00N 48°59' W 123°41'0 0.0
2018-Apr-22 08:30N 48°59' W 123°41'0 0.0
2018-Apr-22 08:00N 48°59' W 123°41'0 0.0
2018-Apr-22 07:30N 48°59' W 123°41'0 0.0
2018-Apr-22 06:59N 48°59' W 123°41'0 0.0
2018-Apr-22 06:27N 48°59' W 123°41'0 0.0
2018-Apr-22 05:59N 48°59' W 123°41'1 1.9
2018-Apr-22 05:30N 48°58' W 123°40'3 4.5
2018-Apr-22 04:45N 48°56' W 123°43'2 7.7
2018-Apr-22 04:29N 48°57' W 123°42'2 3.0
2018-Apr-22 03:59N 48°58' W 123°40'3 5.5
2018-Apr-22 03:30N 48°56' W 123°42'1 1.9
2018-Apr-22 02:59N 48°57' W 123°41'1 2.6
2018-Apr-22 02:30N 48°58' W 123°41'1 2.7
2018-Apr-22 01:58N 48°57' W 123°42'1 2.6
2018-Apr-22 01:30N 48°56' W 123°43'3 6.3
2018-Apr-22 01:00N 48°58' W 123°40'1 1.9
2018-Apr-22 00:30N 48°58' W 123°41'3 4.8
2018-Apr-21 23:55N 48°56' W 123°43'4 8.5
2018-Apr-21 23:30N 48°59' W 123°41'1 1.8
2018-Apr-21 23:00N 48°58' W 123°40'3 5.4
2018-Apr-21 22:25N 48°56' W 123°43'3 8.0
2018-Apr-21 22:00N 48°58' W 123°40'1 1.6
2018-Apr-21 21:27N 48°59' W 123°41'3 7.6
2018-Apr-21 21:00N 48°56' W 123°43'2 4.2
2018-Apr-21 20:30N 48°58' W 123°42'1 2.7
2018-Apr-21 20:00N 48°58' W 123°40'2 4.2
2018-Apr-21 19:30N 48°57' W 123°42'1 1.5
2018-Apr-21 18:41N 48°56' W 123°43'2 8.1
2018-Apr-21 18:30N 48°57' W 123°42'1 2.8
2018-Apr-21 18:00N 48°58' W 123°40'1 2.0
2018-Apr-21 17:30N 48°57' W 123°41'2 3.6
2018-Apr-21 16:59N 48°56' W 123°43'3 6.8
2018-Apr-21 16:30N 48°58' W 123°40'1 2.4
2018-Apr-21 16:00N 48°58' W 123°41'2 4.9
2018-Apr-21 15:30N 48°56' W 123°43'3 6.8
2018-Apr-21 15:00N 48°59' W 123°41'1 2.5
2018-Apr-21 14:30N 48°58' W 123°40'3 5.1
2018-Apr-21 14:00N 48°56' W 123°43'3 6.6
2018-Apr-21 13:30N 48°58' W 123°40'1 0.4
2018-Apr-21 11:20N 48°59' W 123°41'0 0.0
2018-Apr-21 06:26N 48°59' W 123°41'0 0.4
2018-Apr-21 05:59N 48°59' W 123°41'1 3.1
2018-Apr-21 05:30N 48°57' W 123°41'2 4.3
2018-Apr-21 05:00N 48°56' W 123°43'4 7.0
2018-Apr-21 04:30N 48°59' W 123°41'2 3.3
2018-Apr-21 04:00N 48°57' W 123°41'2 3.1
2018-Apr-21 03:31N 48°56' W 123°42'2 4.5
2018-Apr-21 03:01N 48°58' W 123°40'2 3.1
2018-Apr-21 02:30N 48°57' W 123°42'0 0.8
2018-Apr-21 02:00N 48°57' W 123°42'2 3.4
2018-Apr-21 01:30N 48°58' W 123°41'2 3.9
2018-Apr-21 01:01N 48°57' W 123°42'1 1.1
2018-Apr-21 00:30N 48°57' W 123°42'1 2.6
2018-Apr-20 23:58N 48°58' W 123°40'2 3.9
2018-Apr-20 23:30N 48°56' W 123°42'0 0.2
2018-Apr-20 23:00N 48°56' W 123°42'2 3.6
2018-Apr-20 22:29N 48°58' W 123°41'1 1.5
2018-Apr-20 22:00N 48°58' W 123°42'2 4.5
2018-Apr-20 21:30N 48°56' W 123°43'3 6.7
2018-Apr-20 21:00N 48°58' W 123°40'1 1.7
2018-Apr-20 20:30N 48°58' W 123°41'3 5.0
2018-Apr-20 19:52N 48°56' W 123°43'2 6.7
2018-Apr-20 19:30N 48°57' W 123°40'1 1.7
2018-Apr-20 19:00N 48°57' W 123°41'1 2.6
2018-Apr-20 18:30N 48°56' W 123°43'3 5.9
2018-Apr-20 17:57N 48°59' W 123°41'1 2.1
2018-Apr-20 17:30N 48°58' W 123°40'3 5.6
2018-Apr-20 16:57N 48°56' W 123°43'3 6.3
2018-Apr-20 16:30N 48°58' W 123°41'1 2.7
2018-Apr-20 16:00N 48°57' W 123°42'1 1.4
2018-Apr-20 15:29N 48°56' W 123°42'3 5.8
2018-Apr-20 15:00N 48°59' W 123°41'1 2.7
2018-Apr-20 14:31N 48°57' W 123°40'2 4.9
2018-Apr-20 14:01N 48°56' W 123°43'3 6.4
2018-Apr-20 13:30N 48°58' W 123°40'1 1.8
2018-Apr-20 13:00N 48°59' W 123°41'0 0.0
2018-Apr-20 12:16N 48°59' W 123°41'0 0.0
2018-Apr-20 11:46N 48°59' W 123°41'0 0.0
2018-Apr-20 11:28N 48°59' W 123°41'0 0.0
2018-Apr-20 09:52N 48°59' W 123°41'0 0.0
2018-Apr-20 09:16N 48°59' W 123°41'0 0.0
2018-Apr-20 08:58N 48°59' W 123°41'0 0.0
2018-Apr-20 05:58N 48°59' W 123°41'1 2.0
2018-Apr-20 05:30N 48°58' W 123°40'3 6.7
2018-Apr-20 04:59N 48°56' W 123°43'2 4.7
2018-Apr-20 04:29N 48°58' W 123°42'1 2.8
2018-Apr-20 04:00N 48°58' W 123°40'3 5.9
2018-Apr-20 03:30N 48°56' W 123°42'2 3.2
2018-Apr-20 03:00N 48°57' W 123°41'2 3.2
2018-Apr-20 02:29N 48°59' W 123°41'2 4.9
2018-Apr-20 02:00N 48°57' W 123°42'0 0.7
2018-Apr-20 01:30N 48°56' W 123°42'2 4.6
2018-Apr-20 01:00N 48°58' W 123°40'1 2.4
2018-Apr-20 00:30N 48°58' W 123°42'2 4.4
2018-Apr-20 00:00N 48°56' W 123°43'3 6.9
2018-Apr-19 23:30N 48°59' W 123°41'1 2.5
2018-Apr-19 23:00N 48°58' W 123°40'3 4.9
2018-Apr-19 22:27N 48°56' W 123°43'3 7.3
2018-Apr-19 21:59N 48°58' W 123°40'1 1.7
2018-Apr-19 21:27N 48°59' W 123°41'3 7.0
2018-Apr-19 21:01N 48°56' W 123°43'2 3.0
2018-Apr-19 20:30N 48°57' W 123°42'1 2.2
2018-Apr-19 20:00N 48°58' W 123°40'1 2.6
2018-Apr-19 19:30N 48°57' W 123°41'1 2.2
2018-Apr-19 18:49N 48°56' W 123°43'2 6.9
2018-Apr-19 18:30N 48°58' W 123°42'1 2.4
2018-Apr-19 18:00N 48°58' W 123°40'2 3.7
2018-Apr-19 17:30N 48°57' W 123°42'1 1.2
2018-Apr-19 17:00N 48°56' W 123°42'2 4.5
2018-Apr-19 16:30N 48°58' W 123°40'1 2.3
2018-Apr-19 16:00N 48°57' W 123°42'1 2.8
2018-Apr-19 15:30N 48°56' W 123°43'3 5.9
2018-Apr-19 15:00N 48°59' W 123°41'1 2.5
2018-Apr-19 14:30N 48°58' W 123°40'3 5.2
2018-Apr-19 14:00N 48°56' W 123°43'3 6.4
2018-Apr-19 13:29N 48°58' W 123°40'1 0.1
2018-Apr-19 05:45N 48°59' W 123°41'1 3.7
2018-Apr-19 05:30N 48°58' W 123°40'3 4.8
2018-Apr-19 04:49N 48°56' W 123°43'2 7.4
2018-Apr-19 04:30N 48°58' W 123°42'1 2.5
2018-Apr-19 04:00N 48°58' W 123°40'2 4.9
2018-Apr-19 03:30N 48°56' W 123°42'1 1.9
2018-Apr-19 03:00N 48°57' W 123°41'1 2.8
2018-Apr-19 02:30N 48°58' W 123°41'1 2.9
2018-Apr-19 02:01N 48°57' W 123°42'1 1.7
2018-Apr-19 01:30N 48°56' W 123°42'3 5.4
2018-Apr-19 01:00N 48°58' W 123°40'1 2.4
2018-Apr-19 00:30N 48°58' W 123°41'3 4.8
2018-Apr-18 23:59N 48°56' W 123°43'4 6.8
2018-Apr-18 23:28N 48°59' W 123°41'1 2.7
2018-Apr-18 23:00N 48°58' W 123°40'3 4.8
2018-Apr-18 22:27N 48°56' W 123°43'3 7.5
2018-Apr-18 22:00N 48°58' W 123°40'1 1.4
2018-Apr-18 21:19N 48°59' W 123°41'2 7.1
2018-Apr-18 21:01N 48°57' W 123°42'0 0.3
2018-Apr-18 20:29N 48°57' W 123°42'2 3.9
2018-Apr-18 20:00N 48°58' W 123°41'1 2.8
2018-Apr-18 19:30N 48°57' W 123°41'2 2.4
2018-Apr-18 18:45N 48°56' W 123°43'2 8.1
2018-Apr-18 18:30N 48°57' W 123°42'1 2.4
2018-Apr-18 18:00N 48°58' W 123°40'1 3.0
2018-Apr-18 17:30N 48°57' W 123°41'1 2.0
2018-Apr-18 17:00N 48°56' W 123°42'2 4.2
2018-Apr-18 16:27N 48°58' W 123°41'1 1.9
2018-Apr-18 16:00N 48°57' W 123°42'2 3.8
2018-Apr-18 15:30N 48°56' W 123°43'3 6.8
2018-Apr-18 15:00N 48°59' W 123°41'1 2.8
2018-Apr-18 14:30N 48°57' W 123°40'2 4.9
2018-Apr-18 14:00N 48°56' W 123°43'3 6.6
2018-Apr-18 13:31N 48°58' W 123°40'1 0.3
2018-Apr-18 09:55N 48°59' W 123°41'0 0.0
2018-Apr-18 08:07N 48°59' W 123°41'0 0.0
2018-Apr-18 06:04N 48°59' W 123°41'0 4.1
2018-Apr-18 05:59N 48°58' W 123°41'1 3.1
2018-Apr-18 05:31N 48°57' W 123°41'2 3.1
2018-Apr-18 05:00N 48°56' W 123°43'3 6.4
2018-Apr-18 04:31N 48°59' W 123°41'2 3.2
2018-Apr-18 04:00N 48°57' W 123°40'2 3.9
2018-Apr-18 03:30N 48°56' W 123°43'3 6.1
2018-Apr-18 03:01N 48°58' W 123°40'1 1.6
2018-Apr-18 02:27N 48°59' W 123°41'3 6.4
2018-Apr-18 02:00N 48°56' W 123°42'2 3.3
2018-Apr-18 01:28N 48°57' W 123°40'1 3.1
2018-Apr-18 01:00N 48°59' W 123°41'3 6.6
2018-Apr-18 00:30N 48°56' W 123°43'2 3.0
2018-Apr-18 00:00N 48°57' W 123°42'1 2.7
2018-Apr-17 23:30N 48°58' W 123°40'2 4.2
2018-Apr-17 23:01N 48°56' W 123°42'1 1.5
2018-Apr-17 22:27N 48°56' W 123°43'3 7.3
2018-Apr-17 22:00N 48°58' W 123°40'1 1.5
2018-Apr-17 21:23N 48°59' W 123°41'3 8.7
2018-Apr-17 21:00N 48°56' W 123°43'2 3.8
2018-Apr-17 20:28N 48°58' W 123°42'1 2.0
2018-Apr-17 20:00N 48°58' W 123°40'2 3.9
2018-Apr-17 19:31N 48°56' W 123°42'1 1.1
2018-Apr-17 18:45N 48°56' W 123°43'2 8.5
2018-Apr-17 18:30N 48°57' W 123°42'1 2.3
2018-Apr-17 18:00N 48°58' W 123°40'3 5.2
2018-Apr-17 17:30N 48°56' W 123°42'1 3.0
2018-Apr-17 17:00N 48°57' W 123°41'1 1.9
2018-Apr-17 16:30N 48°58' W 123°41'1 2.1
2018-Apr-17 16:01N 48°57' W 123°42'2 3.0
2018-Apr-17 15:30N 48°56' W 123°43'3 6.3
2018-Apr-17 15:00N 48°59' W 123°41'1 3.0
2018-Apr-17 14:30N 48°57' W 123°40'2 4.8
2018-Apr-17 14:00N 48°56' W 123°43'3 6.8
2018-Apr-17 13:31N 48°58' W 123°40'1 1.8
2018-Apr-17 13:00N 48°59' W 123°41'0 0.0
2018-Apr-17 12:27N 48°59' W 123°41'0 0.0
2018-Apr-17 11:51N 48°59' W 123°41'0 0.0
2018-Apr-17 11:27N 48°59' W 123°41'0 0.0
2018-Apr-17 09:15N 48°59' W 123°41'0 0.0
2018-Apr-17 08:57N 48°59' W 123°41'0 0.0
2018-Apr-17 08:21N 48°59' W 123°41'0 0.0
2018-Apr-17 07:51N 48°59' W 123°41'0 0.0
2018-Apr-17 07:27N 48°59' W 123°41'0 0.0
2018-Apr-17 06:57N 48°59' W 123°41'0 0.0
2018-Apr-17 06:21N 48°59' W 123°41'0 0.0
2018-Apr-17 05:49N 48°59' W 123°41'1 2.9
2018-Apr-17 05:30N 48°58' W 123°40'3 4.6
2018-Apr-17 04:47N 48°56' W 123°43'2 8.6
2018-Apr-17 04:29N 48°58' W 123°41'1 2.5
2018-Apr-17 04:00N 48°58' W 123°40'3 6.3
2018-Apr-17 03:29N 48°56' W 123°43'2 3.6
2018-Apr-17 03:00N 48°57' W 123°41'1 2.7
2018-Apr-17 02:30N 48°58' W 123°41'2 4.3
2018-Apr-17 02:00N 48°56' W 123°42'2 3.0
2018-Apr-17 01:29N 48°57' W 123°40'1 2.6
2018-Apr-17 00:56N 48°59' W 123°41'4 5.5
2018-Apr-17 00:17N 48°56' W 123°43'2 8.5
2018-Apr-17 00:00N 48°58' W 123°42'1 2.4
2018-Apr-16 23:28N 48°58' W 123°40'3 4.8
2018-Apr-16 22:46N 48°56' W 123°43'2 8.3
2018-Apr-16 22:30N 48°57' W 123°41'1 1.5
2018-Apr-16 21:30N 48°59' W 123°41'2 4.0
2018-Apr-16 21:00N 48°57' W 123°42'0 0.9
2018-Apr-16 20:29N 48°57' W 123°42'2 4.4
2018-Apr-16 19:59N 48°59' W 123°41'1 3.1
2018-Apr-16 19:30N 48°57' W 123°41'2 2.7
2018-Apr-16 18:45N 48°56' W 123°43'2 7.3
2018-Apr-16 18:30N 48°57' W 123°42'1 2.4
2018-Apr-16 17:58N 48°58' W 123°40'1 2.7
2018-Apr-16 17:30N 48°57' W 123°41'1 2.3
2018-Apr-16 17:00N 48°56' W 123°42'3 5.6
2018-Apr-16 16:30N 48°58' W 123°40'1 2.4
2018-Apr-16 16:00N 48°58' W 123°41'2 4.5
2018-Apr-16 15:30N 48°56' W 123°43'3 6.7
2018-Apr-16 14:59N 48°59' W 123°41'1 2.8
2018-Apr-16 14:30N 48°58' W 123°40'3 5.0
2018-Apr-16 14:00N 48°56' W 123°43'3 6.2
2018-Apr-16 13:29N 48°58' W 123°40'1 0.4
2018-Apr-16 11:08N 48°59' W 123°41'0 0.0
2018-Apr-16 10:53N 48°59' W 123°41'0 0.0
2018-Apr-16 10:26N 48°59' W 123°41'0 0.0
2018-Apr-16 08:32N 48°59' W 123°41'0 0.0
2018-Apr-16 08:08N 48°59' W 123°41'0 0.0
2018-Apr-16 07:44N 48°59' W 123°41'0 0.0
2018-Apr-16 06:35N 48°59' W 123°41'0 0.0
2018-Apr-16 06:08N 48°59' W 123°41'0 0.0
2018-Apr-16 05:52N 48°59' W 123°41'1 2.4
2018-Apr-16 05:29N 48°58' W 123°40'3 7.1
2018-Apr-16 05:00N 48°56' W 123°43'2 4.1
2018-Apr-16 04:29N 48°58' W 123°42'1 3.0
2018-Apr-16 04:00N 48°58' W 123°40'3 6.3
2018-Apr-16 03:30N 48°56' W 123°43'2 3.7
2018-Apr-16 03:00N 48°57' W 123°41'2 3.1
2018-Apr-16 02:31N 48°59' W 123°41'2 4.5
2018-Apr-16 02:00N 48°57' W 123°42'0 0.6
2018-Apr-16 01:29N 48°56' W 123°42'2 4.5
2018-Apr-16 01:00N 48°58' W 123°40'1 2.8
2018-Apr-16 00:30N 48°58' W 123°42'2 4.1
2018-Apr-16 00:00N 48°56' W 123°43'3 6.4
2018-Apr-15 23:28N 48°59' W 123°41'1 2.4
2018-Apr-15 23:00N 48°58' W 123°40'3 4.8
2018-Apr-15 22:25N 48°56' W 123°43'3 8.1
2018-Apr-15 22:00N 48°58' W 123°40'1 1.4
2018-Apr-15 21:20N 48°59' W 123°41'2 7.2
2018-Apr-15 21:01N 48°57' W 123°42'0 0.3
2018-Apr-15 20:30N 48°57' W 123°42'2 3.7
2018-Apr-15 20:00N 48°58' W 123°41'2 3.2
2018-Apr-15 19:31N 48°57' W 123°41'1 1.6
2018-Apr-15 18:40N 48°56' W 123°43'1 8.3
2018-Apr-15 18:30N 48°57' W 123°42'2 2.9
2018-Apr-15 17:59N 48°58' W 123°40'1 1.5
2018-Apr-15 17:30N 48°57' W 123°40'2 4.1
2018-Apr-15 16:58N 48°56' W 123°43'3 7.2
2018-Apr-15 16:30N 48°58' W 123°40'1 2.5
2018-Apr-15 16:00N 48°58' W 123°41'2 4.9
2018-Apr-15 15:31N 48°56' W 123°43'4 7.0
2018-Apr-15 15:00N 48°59' W 123°41'2 3.0
2018-Apr-15 14:30N 48°57' W 123°40'2 4.3
2018-Apr-15 13:57N 48°56' W 123°43'3 7.5
2018-Apr-15 13:30N 48°58' W 123°40'1 1.8
2018-Apr-15 12:59N 48°59' W 123°41'0 0.0
2018-Apr-15 12:30N 48°59' W 123°41'0 0.0
2018-Apr-15 12:00N 48°59' W 123°41'0 0.0
2018-Apr-15 11:28N 48°59' W 123°41'0 0.0
2018-Apr-15 10:55N 48°59' W 123°41'0 0.0
2018-Apr-15 10:30N 48°59' W 123°41'0 0.0
2018-Apr-15 09:58N 48°59' W 123°41'0 0.0
2018-Apr-15 09:30N 48°59' W 123°41'0 0.0
2018-Apr-15 08:59N 48°59' W 123°41'0 0.0
2018-Apr-15 08:30N 48°59' W 123°41'0 0.0
2018-Apr-15 08:00N 48°59' W 123°41'0 0.0
2018-Apr-15 06:24N 48°59' W 123°41'0 0.0
2018-Apr-15 05:59N 48°59' W 123°41'1 1.8
2018-Apr-15 05:30N 48°58' W 123°40'3 6.5
2018-Apr-15 05:00N 48°56' W 123°43'2 4.2
2018-Apr-15 04:29N 48°58' W 123°42'1 2.9
2018-Apr-15 04:00N 48°58' W 123°40'3 6.0
2018-Apr-15 03:30N 48°56' W 123°43'1 2.6
2018-Apr-15 03:00N 48°57' W 123°41'1 2.6
2018-Apr-15 02:30N 48°58' W 123°41'1 2.5
2018-Apr-15 02:00N 48°57' W 123°42'1 2.7
2018-Apr-15 01:30N 48°56' W 123°43'3 5.8
2018-Apr-15 00:59N 48°58' W 123°40'1 1.8
2018-Apr-15 00:30N 48°58' W 123°41'3 5.8
2018-Apr-14 23:59N 48°56' W 123°43'4 6.1
2018-Apr-14 23:24N 48°59' W 123°41'  

Dump ship's entire track history